Flight Track Log - Related Links

Times and Time Zones

All times are in EDT time to prevent confusion due to time zone crossing. See the AWE9325 flight status page for this flight to view local times or setup timezone preferences in your user account.

Time Position Orientation Groundspeed Altitude Reporting Facility
EDT Latitude Longitude Course Direction KTS MPH feet Rate Location/Type
Fri 07:34:00 PM 33.9236 -118.0634 94° East  Level Estimated
Fri 07:35:00 PM 33.9172 -117.9486 94° East  Level Estimated
Fri 07:36:00 PM 33.9106 -117.8337 94° East  Level Estimated
Fri 07:37:00 PM 33.9039 -117.7189 94° East  Level Estimated
Fri 07:38:00 PM 33.8970 -117.6041 94° East  Level Estimated
Fri 07:39:00 PM 33.8901 -117.4894 94° East  Level Estimated
Fri 07:40:00 PM 33.8831 -117.3746 94° East  Level Estimated
Fri 07:41:00 PM 33.8760 -117.2599 94° East  Level Estimated
Fri 07:42:00 PM 33.8687 -117.1451 94° East  Level Estimated
Fri 07:43:00 PM 33.8614 -117.0304 94° East  Level Estimated
Fri 07:44:00 PM 33.8539 -116.9158 94° East  Level Estimated
Fri 07:45:00 PM 33.8464 -116.8011 95° East  Level Estimated
Fri 07:46:00 PM 33.8387 -116.6865 95° East  Level Estimated
Fri 07:47:00 PM 33.8309 -116.5718 95° East  Level Estimated
Fri 07:48:00 PM 33.8231 -116.4572 95° East  Level Estimated
Fri 07:49:00 PM 33.8151 -116.3427 95° East  Level Estimated
Fri 07:50:00 PM 33.8070 -116.2281 95° East  Level Estimated
Fri 07:51:00 PM 33.7988 -116.1136 95° East  Level Estimated
Fri 07:52:00 PM 33.7905 -115.9991 95° East  Level Estimated
Fri 07:53:00 PM 33.7821 -115.8846 95° East  Level Estimated
Fri 07:54:00 PM 33.7736 -115.7701 95° East  Level Estimated
Fri 07:55:00 PM 33.7649 -115.6557 95° East  Level Estimated
Fri 07:56:00 PM 33.7562 -115.5413 95° East  Level Estimated
Fri 07:57:00 PM 33.7474 -115.4268 95° East  Level Estimated
Fri 07:58:00 PM 33.7385 -115.3125 95° East  Level Estimated
Fri 07:59:00 PM 33.7294 -115.1981 95° East  Level Estimated
Fri 08:00:00 PM 33.7203 -115.0838 95° East  Level Estimated
Fri 08:01:00 PM 33.7110 -114.9695 96° East  Level Estimated
Fri 08:02:00 PM 33.7017 -114.8552 96° East  Level Estimated
Fri 08:03:00 PM 33.6922 -114.7410 96° East  Level Estimated
Fri 08:04:00 PM 33.6827 -114.6267 96° East  Level Estimated
Fri 08:05:00 PM 33.6730 -114.5126 96° East  Level Estimated
Fri 08:06:00 PM 33.6632 -114.3984 96° East  Level Estimated
Fri 08:07:00 PM 33.6533 -114.2842 96° East  Level Estimated
Fri 08:08:00 PM 33.6434 -114.1701 96° East  Level Estimated
Fri 08:09:00 PM 33.6333 -114.0560 96° East  Level Estimated
Fri 08:10:00 PM 33.6231 -113.9419 96° East  Level Estimated
Fri 08:11:00 PM 33.6128 -113.8279 96° East  Level Estimated
Fri 08:12:00 PM 33.6024 -113.7139 96° East  Level Estimated
Fri 08:13:00 PM 33.5911 -113.5911 96° East  Level Estimated
Fri 08:14:00 PM 33.5796 -113.4684 96° East  Level Estimated
Fri 08:15:00 PM 33.5681 -113.3457 96° East  Level Estimated
Fri 08:16:00 PM 33.5564 -113.2231 96° East  Level Estimated
Fri 08:17:00 PM 33.5446 -113.1005 97° East  Level Estimated
Fri 08:18:00 PM 33.5333 -112.9846 97° East  Level Estimated
Fri 08:19:00 PM 33.5219 -112.8687 97° East  Level Estimated
Fri 08:20:00 PM 33.5104 -112.7529 97° East  Level Estimated
Fri 08:21:00 PM 33.4988 -112.6370 97° East  Level Estimated
Fri 08:22:00 PM 33.4871 -112.5213 97° East  Level Estimated
Fri 08:23:00 PM 33.4753 -112.4055 97° East  Level Estimated
Fri 08:24:00 PM 33.4634 -112.2898 97° East  Level Estimated
Fri 08:25:00 PM 33.4514 -112.1741 97° East  Level Estimated
Fri 08:26:00 PM 33.4392 -112.0585 97° East  Level Estimated
Fri 08:27:00 PM 33.4343 -112.0116 97° East  Level Estimated
Fri 08:28:00 PM 33.4343 -112.0116 231° Southwest  Level Estimated
Fri 08:29:00 PM 33.4343 -112.0116 231° Southwest  Level Estimated

Login

Don't have an account? Register now (free) for customized features, flight alerts, and more!